createdAt,value
2022-09-16T00:00:01.122Z,1004.65
2022-09-16T00:01:04.728Z,1004.67
2022-09-16T00:02:02.535Z,1004.68
2022-09-16T00:03:01.144Z,1004.66
2022-09-16T00:04:01.136Z,1004.67
2022-09-16T00:05:01.612Z,1004.69
2022-09-16T00:06:06.638Z,1004.69
2022-09-16T00:07:02.121Z,1004.74
2022-09-16T00:08:01.864Z,1004.75
2022-09-16T00:09:01.074Z,1004.78
2022-09-16T00:10:01.107Z,1004.75
2022-09-16T00:11:09.825Z,1004.75
2022-09-16T00:12:01.391Z,1004.75
2022-09-16T00:13:02.027Z,1004.72
2022-09-16T00:14:01.116Z,1004.71
2022-09-16T00:15:01.116Z,1004.72
2022-09-16T00:16:12.337Z,1004.7
2022-09-16T00:17:02.880Z,1004.63
2022-09-16T00:18:02.854Z,1004.68
2022-09-16T00:19:01.111Z,1004.71
2022-09-16T00:20:01.054Z,1004.69
2022-09-16T00:21:14.532Z,1004.71
2022-09-16T00:22:01.063Z,1004.65
2022-09-16T00:23:01.081Z,1004.7
2022-09-16T00:24:01.087Z,1004.7
2022-09-16T00:25:01.037Z,1004.76
2022-09-16T00:26:16.124Z,1004.71
2022-09-16T00:27:01.662Z,1004.71
2022-09-16T00:28:01.109Z,1004.75
2022-09-16T00:29:01.114Z,1004.71
2022-09-16T00:30:01.126Z,1004.75
2022-09-16T00:31:01.211Z,1004.75
2022-09-16T00:32:01.125Z,1004.75
2022-09-16T00:33:01.144Z,1004.73
2022-09-16T00:34:01.232Z,1004.78
2022-09-16T00:35:01.344Z,1004.78
2022-09-16T00:36:01.357Z,1004.77
2022-09-16T00:37:01.076Z,1004.77
2022-09-16T00:38:01.680Z,1004.79
2022-09-16T00:39:01.087Z,1004.79
2022-09-16T00:40:01.121Z,1004.78
2022-09-16T00:41:01.091Z,1004.82
2022-09-16T00:42:01.506Z,1004.86
2022-09-16T00:43:01.229Z,1004.84
2022-09-16T00:44:01.116Z,1004.87
2022-09-16T00:45:01.106Z,1004.83
2022-09-16T00:46:01.034Z,1004.82
2022-09-16T00:47:01.131Z,1004.84
2022-09-16T00:48:01.051Z,1004.84
2022-09-16T00:49:01.152Z,1004.83
2022-09-16T00:50:01.813Z,1004.85
2022-09-16T00:51:01.279Z,1004.85
2022-09-16T00:52:01.043Z,1004.87
2022-09-16T00:53:01.092Z,1004.83
2022-09-16T00:54:01.085Z,1004.85
2022-09-16T00:55:01.097Z,1004.87
2022-09-16T00:56:01.106Z,1004.81
2022-09-16T00:57:01.321Z,1004.8
2022-09-16T00:58:01.196Z,1004.85
2022-09-16T00:59:01.115Z,1004.79
2022-09-16T01:00:01.552Z,1004.81
2022-09-16T01:01:01.287Z,1004.84
2022-09-16T01:02:01.244Z,1004.87
2022-09-16T01:03:01.142Z,1004.9
2022-09-16T01:04:01.170Z,1004.9
2022-09-16T01:05:01.173Z,1004.89
2022-09-16T01:06:01.056Z,1004.88
2022-09-16T01:07:01.046Z,1004.87
2022-09-16T01:08:01.446Z,1004.81
2022-09-16T01:09:01.064Z,1004.81
2022-09-16T01:10:00.761Z,1004.83
2022-09-16T01:11:00.454Z,1004.85
2022-09-16T01:12:00.413Z,1004.84
2022-09-16T01:13:00.168Z,1004.87
2022-09-16T01:13:59.821Z,1004.86
2022-09-16T01:15:01.776Z,1004.89
2022-09-16T01:16:01.579Z,1004.91
2022-09-16T01:17:01.167Z,1004.9
2022-09-16T01:18:01.337Z,1004.92
2022-09-16T01:19:02.642Z,1004.92
2022-09-16T01:20:01.416Z,1004.93
2022-09-16T01:21:01.718Z,1004.97
2022-09-16T01:22:01.854Z,1004.96
2022-09-16T01:23:01.334Z,1004.97
2022-09-16T01:24:01.981Z,1005
2022-09-16T01:25:01.780Z,1004.99
2022-09-16T01:26:01.076Z,1004.98
2022-09-16T01:27:01.190Z,1004.97
2022-09-16T01:28:01.097Z,1004.96
2022-09-16T01:29:01.092Z,1004.97
2022-09-16T01:30:01.096Z,1005.01
2022-09-16T01:31:01.173Z,1004.93
2022-09-16T01:32:01.961Z,1005
2022-09-16T01:33:01.133Z,1004.97
2022-09-16T01:34:01.129Z,1004.91
2022-09-16T01:35:01.144Z,1004.97
2022-09-16T01:36:01.153Z,1005
2022-09-16T01:37:01.059Z,1004.93
2022-09-16T01:38:01.439Z,1004.97
2022-09-16T01:39:01.064Z,1004.98
2022-09-16T01:40:01.195Z,1004.93
2022-09-16T01:41:01.063Z,1004.99
2022-09-16T01:42:01.046Z,1004.96
2022-09-16T01:43:01.101Z,1005
2022-09-16T01:44:01.353Z,1004.98
2022-09-16T01:45:03.879Z,1004.91
2022-09-16T01:46:01.103Z,1004.94
2022-09-16T01:47:03.890Z,1004.95
2022-09-16T01:48:01.366Z,1004.92
2022-09-16T01:49:01.120Z,1004.91
2022-09-16T01:50:01.548Z,1004.86
2022-09-16T01:51:01.265Z,1004.91
2022-09-16T01:52:08.248Z,1004.93
2022-09-16T01:53:01.978Z,1004.93
2022-09-16T01:54:02.073Z,1004.95
2022-09-16T01:55:01.238Z,1005.01
2022-09-16T01:56:01.233Z,1004.94
2022-09-16T01:57:11.794Z,1004.97
2022-09-16T01:58:01.768Z,1004.95
2022-09-16T01:59:01.800Z,1004.94
2022-09-16T02:00:01.940Z,1004.95
2022-09-16T02:01:01.102Z,1004.92
2022-09-16T02:02:16.226Z,1004.98
2022-09-16T02:03:01.620Z,1004.93
2022-09-16T02:04:02.220Z,1004.95
2022-09-16T02:05:01.949Z,1004.9
2022-09-16T02:06:01.971Z,1004.88
2022-09-16T02:07:01.134Z,1004.88
2022-09-16T02:08:01.158Z,1004.87
2022-09-16T02:09:01.458Z,1004.84
2022-09-16T02:10:02.932Z,1004.83
2022-09-16T02:11:01.062Z,1004.82
2022-09-16T02:12:01.067Z,1004.83
2022-09-16T02:13:01.084Z,1004.79
2022-09-16T02:14:00.935Z,1004.79
2022-09-16T02:15:01.090Z,1004.79
2022-09-16T02:16:01.193Z,1004.81
2022-09-16T02:17:01.105Z,1004.82
2022-09-16T02:18:01.122Z,1004.8
2022-09-16T02:19:01.032Z,1004.81
2022-09-16T02:20:01.120Z,1004.83
2022-09-16T02:21:01.138Z,1004.82
2022-09-16T02:22:01.152Z,1004.79
2022-09-16T02:23:01.531Z,1004.81
2022-09-16T02:24:01.046Z,1004.83
2022-09-16T02:25:01.068Z,1004.81
2022-09-16T02:26:01.068Z,1004.85
2022-09-16T02:27:01.068Z,1004.84
2022-09-16T02:28:01.078Z,1004.84
2022-09-16T02:29:01.072Z,1004.89
2022-09-16T02:30:01.106Z,1004.86
2022-09-16T02:31:01.217Z,1004.86
2022-09-16T02:32:01.300Z,1004.88
2022-09-16T02:33:01.491Z,1004.87
2022-09-16T02:34:01.115Z,1004.91
2022-09-16T02:35:01.135Z,1004.87
2022-09-16T02:36:01.118Z,1004.9
2022-09-16T02:37:01.151Z,1004.91
2022-09-16T02:38:01.143Z,1004.95
2022-09-16T02:39:01.196Z,1004.93
2022-09-16T02:40:01.257Z,1004.9
2022-09-16T02:41:01.454Z,1004.89
2022-09-16T02:42:02.081Z,1004.9
2022-09-16T02:43:01.047Z,1004.86
2022-09-16T02:44:01.772Z,1004.88
2022-09-16T02:45:00.763Z,1004.88
2022-09-16T02:46:00.476Z,1004.87
2022-09-16T02:47:00.161Z,1004.93
2022-09-16T02:47:59.872Z,1004.92
2022-09-16T02:49:01.498Z,1004.93
2022-09-16T02:50:01.494Z,1004.94
2022-09-16T02:51:01.137Z,1004.97
2022-09-16T02:52:01.142Z,1004.94
2022-09-16T02:53:01.172Z,1004.96
2022-09-16T02:54:01.040Z,1004.84
2022-09-16T02:55:01.136Z,1004.94
2022-09-16T02:56:01.048Z,1004.92
2022-09-16T02:57:01.052Z,1004.93
2022-09-16T02:58:01.456Z,1004.92
2022-09-16T02:59:01.028Z,1004.94
2022-09-16T03:00:01.112Z,1004.98
2022-09-16T03:01:00.697Z,1004.99
2022-09-16T03:02:00.479Z,1005.01
2022-09-16T03:03:00.232Z,1004.99
2022-09-16T03:03:59.962Z,1005.02
2022-09-16T03:04:59.526Z,1005.01
2022-09-16T03:06:01.092Z,1005
2022-09-16T03:07:01.094Z,1005.04
2022-09-16T03:08:01.125Z,1005.02
2022-09-16T03:09:01.080Z,1004.99
2022-09-16T03:10:01.597Z,1005
2022-09-16T03:11:01.158Z,1004.97
2022-09-16T03:12:01.067Z,1004.99
2022-09-16T03:13:01.061Z,1004.99
2022-09-16T03:14:01.147Z,1004.96
2022-09-16T03:15:01.101Z,1004.97
2022-09-16T03:16:01.152Z,1004.95
2022-09-16T03:17:01.100Z,1004.92
2022-09-16T03:18:01.176Z,1004.94
2022-09-16T03:19:01.487Z,1004.95
2022-09-16T03:20:01.113Z,1004.93
2022-09-16T03:21:01.131Z,1004.97
2022-09-16T03:22:01.197Z,1004.95
2022-09-16T03:23:03.587Z,1004.92
2022-09-16T03:24:01.027Z,1004.9
2022-09-16T03:25:01.035Z,1004.91
2022-09-16T03:26:01.042Z,1004.92
2022-09-16T03:27:01.795Z,1004.91
2022-09-16T03:28:06.321Z,1004.86
2022-09-16T03:29:02.262Z,1004.89
2022-09-16T03:30:03.100Z,1004.85
2022-09-16T03:31:01.980Z,1004.9
2022-09-16T03:32:01.102Z,1004.86
2022-09-16T03:33:09.390Z,1004.9
2022-09-16T03:34:01.385Z,1004.89
2022-09-16T03:35:01.319Z,1004.9
2022-09-16T03:36:01.486Z,1004.93
2022-09-16T03:37:01.123Z,1004.92
2022-09-16T03:38:13.011Z,1004.92
2022-09-16T03:39:01.147Z,1004.97
2022-09-16T03:40:01.061Z,1004.97
2022-09-16T03:41:01.134Z,1004.95
2022-09-16T03:42:01.062Z,1004.95
2022-09-16T03:43:15.137Z,1004.93
2022-09-16T03:44:04.476Z,1004.95
2022-09-16T03:45:01.301Z,1004.97
2022-09-16T03:46:01.571Z,1004.97
2022-09-16T03:47:02.082Z,1004.94
2022-09-16T03:48:16.745Z,1004.92
2022-09-16T03:49:01.107Z,1004.94
2022-09-16T03:50:01.022Z,1004.99
2022-09-16T03:51:01.099Z,1004.9
2022-09-16T03:52:01.118Z,1004.93
2022-09-16T03:53:01.115Z,1004.97
2022-09-16T03:54:01.139Z,1004.95
2022-09-16T03:55:01.306Z,1004.96
2022-09-16T03:56:01.516Z,1004.97
2022-09-16T03:57:01.181Z,1004.95
2022-09-16T03:58:01.054Z,1004.91
2022-09-16T03:59:00.958Z,1004.91
2022-09-16T04:00:01.847Z,1004.88
2022-09-16T04:01:01.068Z,1004.86
2022-09-16T04:02:01.159Z,1004.84
2022-09-16T04:03:01.107Z,1004.86
2022-09-16T04:04:01.438Z,1004.84
2022-09-16T04:05:02.141Z,1004.86
2022-09-16T04:06:02.293Z,1004.88
2022-09-16T04:07:02.032Z,1004.82
2022-09-16T04:08:01.915Z,1004.91
2022-09-16T04:09:01.137Z,1004.86
2022-09-16T04:10:00.889Z,1004.85
2022-09-16T04:11:01.134Z,1004.85
2022-09-16T04:12:01.159Z,1004.86
2022-09-16T04:13:01.044Z,1004.83
2022-09-16T04:14:01.161Z,1004.81
2022-09-16T04:15:01.265Z,1004.81
2022-09-16T04:16:01.189Z,1004.87
2022-09-16T04:17:01.088Z,1004.79
2022-09-16T04:18:01.069Z,1004.79
2022-09-16T04:19:01.081Z,1004.8
2022-09-16T04:20:01.251Z,1004.84
2022-09-16T04:21:01.258Z,1004.83
2022-09-16T04:22:01.309Z,1004.83
2022-09-16T04:23:01.486Z,1004.83
2022-09-16T04:24:01.133Z,1004.84
2022-09-16T04:25:01.030Z,1004.82
2022-09-16T04:26:01.119Z,1004.8
2022-09-16T04:27:01.137Z,1004.84
2022-09-16T04:28:00.794Z,1004.84
2022-09-16T04:29:01.419Z,1004.88
2022-09-16T04:30:02.504Z,1004.82
2022-09-16T04:31:01.331Z,1004.84
2022-09-16T04:32:01.372Z,1004.81
2022-09-16T04:33:01.076Z,1004.89
2022-09-16T04:34:01.469Z,1004.86
2022-09-16T04:35:01.031Z,1004.89
2022-09-16T04:36:01.087Z,1004.9
2022-09-16T04:37:01.119Z,1004.91
2022-09-16T04:38:01.425Z,1004.88
2022-09-16T04:39:01.145Z,1004.83
2022-09-16T04:40:04.730Z,1004.84
2022-09-16T04:41:01.549Z,1004.89
2022-09-16T04:42:01.515Z,1004.87
2022-09-16T04:43:01.257Z,1004.86
2022-09-16T04:44:00.820Z,1004.87
2022-09-16T04:45:00.440Z,1004.88
2022-09-16T04:46:00.253Z,1004.9
2022-09-16T04:46:59.863Z,1004.83
2022-09-16T04:48:02.119Z,1004.84
2022-09-16T04:49:01.507Z,1004.82
2022-09-16T04:50:01.210Z,1004.86
2022-09-16T04:51:00.973Z,1004.86
2022-09-16T04:52:01.109Z,1004.8
2022-09-16T04:53:01.025Z,1004.85
2022-09-16T04:54:01.127Z,1004.86
2022-09-16T04:55:01.263Z,1004.91
2022-09-16T04:56:01.829Z,1004.91
2022-09-16T04:57:01.689Z,1004.94
2022-09-16T04:58:01.139Z,1004.89
2022-09-16T04:59:01.148Z,1004.9
2022-09-16T05:00:01.044Z,1004.93
2022-09-16T05:01:01.072Z,1004.94
2022-09-16T05:02:01.222Z,1004.9
2022-09-16T05:03:01.267Z,1004.9
2022-09-16T05:04:01.131Z,1004.92
2022-09-16T05:05:01.713Z,1004.92
2022-09-16T05:06:01.492Z,1004.91
2022-09-16T05:07:01.215Z,1004.94
2022-09-16T05:08:00.887Z,1004.93
2022-09-16T05:09:03.451Z,1004.93
2022-09-16T05:10:01.105Z,1004.96
2022-09-16T05:11:00.800Z,1005.01
2022-09-16T05:12:00.516Z,1004.97
2022-09-16T05:13:00.106Z,1004.99
2022-09-16T05:14:07.178Z,1004.94
2022-09-16T05:15:01.133Z,1004.98
2022-09-16T05:16:01.375Z,1004.94
2022-09-16T05:17:01.065Z,1004.95
2022-09-16T05:18:01.055Z,1004.97
2022-09-16T05:19:11.344Z,1005.01
2022-09-16T05:20:00.627Z,1004.99
2022-09-16T05:21:00.262Z,1005.02
2022-09-16T05:21:59.856Z,1004.96
2022-09-16T05:23:01.818Z,1004.96
2022-09-16T05:24:13.860Z,1005
2022-09-16T05:25:01.789Z,1005.01
2022-09-16T05:26:01.104Z,1005.02
2022-09-16T05:27:01.133Z,1004.96
2022-09-16T05:28:01.375Z,1005.03
2022-09-16T05:29:14.937Z,1005.01
2022-09-16T05:30:01.508Z,1005
2022-09-16T05:31:00.751Z,1005.03
2022-09-16T05:32:00.453Z,1005.01
2022-09-16T05:33:00.035Z,1004.98
2022-09-16T05:33:59.627Z,1005
2022-09-16T05:35:01.733Z,1005.03
2022-09-16T05:36:01.760Z,1005.08
2022-09-16T05:37:01.987Z,1004.97
2022-09-16T05:38:01.259Z,1004.97
2022-09-16T05:39:22.292Z,1004.99
2022-09-16T05:40:01.055Z,1005
2022-09-16T05:41:00.895Z,1004.97
2022-09-16T05:42:00.596Z,1005.02
2022-09-16T05:43:00.315Z,1005.01
2022-09-16T05:43:59.986Z,1005.02
2022-09-16T05:44:59.568Z,1005.03
2022-09-16T05:46:01.605Z,1005.07
2022-09-16T05:47:01.552Z,1005.06
2022-09-16T05:48:01.476Z,1005.05
2022-09-16T05:49:02.085Z,1005.01
2022-09-16T05:50:01.843Z,1005.03
2022-09-16T05:51:00.751Z,1005.06
2022-09-16T05:52:00.388Z,1005.06
2022-09-16T05:52:59.972Z,1005.01
2022-09-16T05:54:00.028Z,1005.04
2022-09-16T05:54:59.647Z,1005.01
2022-09-16T05:56:01.780Z,1005.05
2022-09-16T05:57:06.671Z,1005.03
2022-09-16T05:58:01.342Z,1005.06
2022-09-16T05:59:01.061Z,1005.02
2022-09-16T06:00:01.236Z,1005.1
2022-09-16T06:01:01.167Z,1005.1
2022-09-16T06:02:04.360Z,1005.06
2022-09-16T06:03:01.073Z,1005.08
2022-09-16T06:04:01.062Z,1005.09
2022-09-16T06:05:01.683Z,1005.08
2022-09-16T06:06:01.467Z,1005.1
2022-09-16T06:07:01.451Z,1005.1
2022-09-16T06:08:02.169Z,1005.15
2022-09-16T06:09:01.084Z,1005.04
2022-09-16T06:10:01.087Z,1005.09
2022-09-16T06:11:00.782Z,1005.12
2022-09-16T06:12:02.289Z,1005.11
2022-09-16T06:13:02.549Z,1005.12
2022-09-16T06:14:01.488Z,1005.09
2022-09-16T06:15:02.249Z,1005.1
2022-09-16T06:16:10.143Z,1005.07
2022-09-16T06:17:09.189Z,1005.06
2022-09-16T06:18:06.092Z,1005.11
2022-09-16T06:19:01.394Z,1005.11
2022-09-16T06:20:01.777Z,1005.1
2022-09-16T06:21:02.022Z,1005.06
2022-09-16T06:22:01.086Z,1005.07
2022-09-16T06:23:01.101Z,1005.08
2022-09-16T06:24:01.076Z,1005.05
2022-09-16T06:25:01.107Z,1005.09
2022-09-16T06:26:01.118Z,1005.03
2022-09-16T06:27:01.114Z,1005.03
2022-09-16T06:28:01.113Z,1005.05
2022-09-16T06:29:01.146Z,1005
2022-09-16T06:30:01.131Z,1005.04
2022-09-16T06:31:01.031Z,1005
2022-09-16T06:32:01.285Z,1005.03
2022-09-16T06:33:01.338Z,1005.05
2022-09-16T06:34:01.144Z,1005.04
2022-09-16T06:35:00.904Z,1005.02
2022-09-16T06:36:01.040Z,1005.02
2022-09-16T06:37:01.234Z,1005.12
2022-09-16T06:38:01.099Z,1005.02
2022-09-16T06:39:01.210Z,1005.01
2022-09-16T06:40:01.166Z,1005.06
2022-09-16T06:41:01.101Z,1005
2022-09-16T06:42:01.679Z,1005.04
2022-09-16T06:43:01.702Z,1005
2022-09-16T06:44:02.455Z,1005.08
2022-09-16T06:45:03.326Z,1005.04
2022-09-16T06:46:02.951Z,1005.04
2022-09-16T06:47:01.363Z,1004.97
2022-09-16T06:48:01.146Z,1004.98
2022-09-16T06:49:05.443Z,1004.98
2022-09-16T06:50:06.268Z,1004.98
2022-09-16T06:51:01.984Z,1005.03
2022-09-16T06:52:01.486Z,1005.02
2022-09-16T06:53:01.077Z,1005
2022-09-16T06:54:01.088Z,1005.02
2022-09-16T06:55:08.632Z,1005.01
2022-09-16T06:56:01.096Z,1005.05
2022-09-16T06:57:01.202Z,1005.03
2022-09-16T06:58:01.104Z,1005.02
2022-09-16T06:59:01.141Z,1005.03
2022-09-16T07:00:12.092Z,1005.03
2022-09-16T07:01:01.129Z,1004.99
2022-09-16T07:02:01.193Z,1004.99
2022-09-16T07:03:01.772Z,1004.97
2022-09-16T07:04:01.141Z,1005.01
2022-09-16T07:05:14.449Z,1004.94
2022-09-16T07:06:01.872Z,1005.02
2022-09-16T07:07:10.009Z,1005.06
2022-09-16T07:08:00.748Z,1005.05
2022-09-16T07:09:00.691Z,1005.07
2022-09-16T07:10:00.354Z,1005.04
2022-09-16T07:10:59.972Z,1005.08
2022-09-16T07:11:59.670Z,1005.1
2022-09-16T07:13:01.840Z,1005.1
2022-09-16T07:14:01.122Z,1005.06
2022-09-16T07:15:01.116Z,1005.03
2022-09-16T07:16:16.495Z,1005.1
2022-09-16T07:17:01.550Z,1005.05
2022-09-16T07:18:01.255Z,1005.06
2022-09-16T07:19:01.468Z,1005.07
2022-09-16T07:20:01.442Z,1005.12
2022-09-16T07:21:02.092Z,1005.08
2022-09-16T07:22:01.052Z,1005.06
2022-09-16T07:23:01.085Z,1005.13
2022-09-16T07:24:01.071Z,1005.04
2022-09-16T07:25:01.165Z,1005.12
2022-09-16T07:26:01.541Z,1005.09
2022-09-16T07:27:02.167Z,1005.12
2022-09-16T07:28:01.381Z,1005.04
2022-09-16T07:29:02.240Z,1005.09
2022-09-16T07:30:02.690Z,1005.06
2022-09-16T07:31:01.673Z,1005.01
2022-09-16T07:32:01.779Z,1005.03
2022-09-16T07:33:01.200Z,1005.01
2022-09-16T07:34:04.022Z,1005.04
2022-09-16T07:35:01.148Z,1005.03
2022-09-16T07:36:01.269Z,1005.06
2022-09-16T07:37:01.463Z,1005.09
2022-09-16T07:38:01.210Z,1005.05
2022-09-16T07:39:01.086Z,1005.08
2022-09-16T07:40:02.151Z,1005.08
2022-09-16T07:41:01.424Z,1005.08
2022-09-16T07:42:05.708Z,1005.1
2022-09-16T07:43:02.090Z,1005.08
2022-09-16T07:44:01.494Z,1005.05
2022-09-16T07:45:01.215Z,1005.05
2022-09-16T07:46:01.175Z,1005.13
2022-09-16T07:47:01.413Z,1005.1
2022-09-16T07:48:01.494Z,1005.11
2022-09-16T07:49:01.195Z,1005.06
2022-09-16T07:50:01.122Z,1005.12
2022-09-16T07:51:01.454Z,1005.19
2022-09-16T07:52:02.062Z,1005.06
2022-09-16T07:53:01.194Z,1005.11
2022-09-16T07:54:01.062Z,1005.11
2022-09-16T07:55:01.175Z,1005.12
2022-09-16T07:56:01.215Z,1005.13
2022-09-16T07:57:01.071Z,1005.22
2022-09-16T07:58:01.084Z,1005.15
2022-09-16T07:59:01.186Z,1005.12
2022-09-16T08:00:01.094Z,1005.11
2022-09-16T08:01:04.634Z,1005.13
2022-09-16T08:02:01.586Z,1005.17
2022-09-16T08:03:01.761Z,1005.11
2022-09-16T08:04:01.308Z,1005.12
2022-09-16T08:05:01.132Z,1005.11
2022-09-16T08:06:01.046Z,1005.12
2022-09-16T08:07:01.141Z,1005.13
2022-09-16T08:08:01.424Z,1005.08
2022-09-16T08:09:10.015Z,1004.97
2022-09-16T08:10:02.866Z,1005.05
2022-09-16T08:11:00.879Z,1005.05
2022-09-16T08:12:01.072Z,1005.04
2022-09-16T08:13:01.169Z,1005.07
2022-09-16T08:14:01.182Z,1004.99
2022-09-16T08:15:01.433Z,1005.04
2022-09-16T08:16:01.114Z,1005.04
2022-09-16T08:17:01.052Z,1005.04
2022-09-16T08:18:01.057Z,1004.98
2022-09-16T08:19:01.121Z,1004.96
2022-09-16T08:20:01.123Z,1005.01
2022-09-16T08:21:01.543Z,1005.03
2022-09-16T08:22:01.548Z,1005.01
2022-09-16T08:23:02.156Z,1005.03
2022-09-16T08:24:01.216Z,1005.05
2022-09-16T08:25:01.079Z,1005.01
2022-09-16T08:26:02.832Z,1005.03
2022-09-16T08:27:01.361Z,1004.96
2022-09-16T08:28:01.371Z,1004.97
2022-09-16T08:29:10.140Z,1005.04
2022-09-16T08:30:01.092Z,1005.02
2022-09-16T08:31:05.202Z,1004.98
2022-09-16T08:32:01.476Z,1005.02
2022-09-16T08:33:01.572Z,1004.98
2022-09-16T08:34:01.231Z,1005.02
2022-09-16T08:35:01.128Z,1005.02
2022-09-16T08:36:09.823Z,1005.02
2022-09-16T08:37:01.424Z,1005.01
2022-09-16T08:38:01.739Z,1004.98
2022-09-16T08:39:01.490Z,1005
2022-09-16T08:40:01.670Z,1005.03
2022-09-16T08:41:12.741Z,1004.97
2022-09-16T08:42:01.035Z,1004.98
2022-09-16T08:43:01.081Z,1004.99
2022-09-16T08:44:01.070Z,1005.03
2022-09-16T08:45:01.080Z,1005.04
2022-09-16T08:46:15.681Z,1005.02
2022-09-16T08:47:01.292Z,1004.99
2022-09-16T08:48:02.230Z,1005.06
2022-09-16T08:49:04.153Z,1005.06
2022-09-16T08:50:01.206Z,1005.03
2022-09-16T08:51:00.811Z,1005.1
2022-09-16T08:52:00.428Z,1005.04
2022-09-16T08:52:59.986Z,1005.05
2022-09-16T08:53:59.587Z,1005.07
2022-09-16T08:55:01.737Z,1005.04
2022-09-16T08:56:01.261Z,1005.07
2022-09-16T08:57:01.077Z,1005.03
2022-09-16T08:58:01.086Z,1005.07
2022-09-16T08:59:01.648Z,1005.06
2022-09-16T09:00:01.552Z,1005.03
2022-09-16T09:01:01.525Z,1004.99
2022-09-16T09:02:08.084Z,1005.02
2022-09-16T09:03:01.407Z,1005.02
2022-09-16T09:04:01.099Z,1005.07
2022-09-16T09:05:01.300Z,1005.06
2022-09-16T09:06:01.062Z,1005
2022-09-16T09:07:01.613Z,1005.05
2022-09-16T09:08:01.253Z,1005.11
2022-09-16T09:09:01.443Z,1005.1
2022-09-16T09:10:01.111Z,1005.05
2022-09-16T09:11:01.059Z,1005.02
2022-09-16T09:12:00.741Z,1005.01
2022-09-16T09:13:01.350Z,1005.01
2022-09-16T09:14:02.513Z,1004.98
2022-09-16T09:15:01.540Z,1005
2022-09-16T09:16:01.197Z,1005.03
2022-09-16T09:17:01.465Z,1005.06
2022-09-16T09:18:01.091Z,1005.04
2022-09-16T09:19:01.098Z,1005.04
2022-09-16T09:20:01.100Z,1004.97
2022-09-16T09:21:01.044Z,1005.01
2022-09-16T09:22:01.455Z,1005
2022-09-16T09:23:01.565Z,1005.01
2022-09-16T09:24:02.768Z,1004.98
2022-09-16T09:25:01.877Z,1004.94
2022-09-16T09:26:01.848Z,1004.95
2022-09-16T09:27:01.925Z,1004.94
2022-09-16T09:28:02.578Z,1004.96
2022-09-16T09:29:01.030Z,1004.99
2022-09-16T09:30:01.028Z,1004.95
2022-09-16T09:31:01.505Z,1004.95
2022-09-16T09:32:01.037Z,1004.99
2022-09-16T09:33:01.184Z,1004.94
2022-09-16T09:34:01.132Z,1004.93
2022-09-16T09:35:01.036Z,1004.98
2022-09-16T09:36:01.125Z,1004.92
2022-09-16T09:37:01.135Z,1004.96
2022-09-16T09:38:00.824Z,1004.94
2022-09-16T09:39:00.667Z,1004.95
2022-09-16T09:40:01.425Z,1004.95
2022-09-16T09:41:01.460Z,1004.96
2022-09-16T09:42:02.028Z,1004.92
2022-09-16T09:43:01.051Z,1004.89
2022-09-16T09:44:01.690Z,1004.82
2022-09-16T09:45:02.410Z,1004.86
2022-09-16T09:46:00.914Z,1004.89
2022-09-16T09:47:00.594Z,1004.85
2022-09-16T09:48:00.430Z,1004.97
2022-09-16T09:49:00.169Z,1004.86
2022-09-16T09:50:00.203Z,1004.8
2022-09-16T09:51:00.247Z,1004.82
2022-09-16T09:51:59.880Z,1004.79
2022-09-16T09:52:59.581Z,1004.78
2022-09-16T09:54:01.160Z,1004.8
2022-09-16T09:55:01.126Z,1004.78
2022-09-16T09:56:01.148Z,1004.8
2022-09-16T09:57:01.046Z,1004.77
2022-09-16T09:58:01.068Z,1004.79
2022-09-16T09:59:01.040Z,1004.86
2022-09-16T10:00:01.035Z,1004.79
2022-09-16T10:01:02.107Z,1004.82
2022-09-16T10:02:01.530Z,1004.83
2022-09-16T10:03:01.085Z,1004.88
2022-09-16T10:04:01.085Z,1004.79
2022-09-16T10:05:01.352Z,1004.82
2022-09-16T10:06:02.021Z,1004.81
2022-09-16T10:08:01.106Z,1004.75
2022-09-16T10:09:01.137Z,1004.74
2022-09-16T10:10:01.449Z,1004.77
2022-09-16T10:11:01.271Z,1004.74
2022-09-16T10:12:01.269Z,1004.76
2022-09-16T10:13:01.974Z,1004.79
2022-09-16T10:14:01.735Z,1004.77
2022-09-16T10:15:01.098Z,1004.72
2022-09-16T10:16:01.137Z,1004.78
2022-09-16T10:17:01.079Z,1004.69
2022-09-16T10:18:01.075Z,1004.68
2022-09-16T10:19:01.087Z,1004.73
2022-09-16T10:20:01.090Z,1004.7
2022-09-16T10:21:03.969Z,1004.68
2022-09-16T10:22:02.145Z,1004.62
2022-09-16T10:23:01.108Z,1004.6
2022-09-16T10:24:01.046Z,1004.58
2022-09-16T10:25:01.121Z,1004.58
2022-09-16T10:26:01.143Z,1004.6
2022-09-16T10:27:04.085Z,1004.59
2022-09-16T10:28:01.046Z,1004.57
2022-09-16T10:29:01.059Z,1004.59
2022-09-16T10:30:00.539Z,1004.62
2022-09-16T10:31:00.255Z,1004.61
2022-09-16T10:32:05.602Z,1004.67
2022-09-16T10:33:01.474Z,1004.63
2022-09-16T10:34:01.091Z,1004.61
2022-09-16T10:35:01.088Z,1004.58
2022-09-16T10:36:01.108Z,1004.65
2022-09-16T10:37:08.968Z,1004.64
2022-09-16T10:38:01.396Z,1004.61
2022-09-16T10:39:04.621Z,1004.7
2022-09-16T10:40:02.166Z,1004.63
2022-09-16T10:41:01.045Z,1004.61
2022-09-16T10:42:11.335Z,1004.63
2022-09-16T10:43:01.345Z,1004.65
2022-09-16T10:44:01.930Z,1004.65
2022-09-16T10:45:02.735Z,1004.63
2022-09-16T10:46:01.977Z,1004.67
2022-09-16T10:47:14.751Z,1004.73
2022-09-16T10:48:03.458Z,1004.75
2022-09-16T10:49:02.148Z,1004.91
2022-09-16T10:50:01.603Z,1004.86
2022-09-16T10:51:01.069Z,1004.92
2022-09-16T10:52:00.806Z,1004.82
2022-09-16T10:53:00.369Z,1004.81
2022-09-16T10:53:59.969Z,1004.77
2022-09-16T10:54:59.592Z,1004.76
2022-09-16T10:56:01.682Z,1004.73
2022-09-16T10:57:01.128Z,1004.71
2022-09-16T10:58:01.145Z,1004.75
2022-09-16T10:59:02.131Z,1004.69
2022-09-16T11:00:01.051Z,1004.68
2022-09-16T11:01:01.831Z,1004.67
2022-09-16T11:02:01.406Z,1004.7
2022-09-16T11:03:01.077Z,1004.72
2022-09-16T11:04:01.746Z,1004.72
2022-09-16T11:05:01.679Z,1004.7
2022-09-16T11:06:01.418Z,1004.68
2022-09-16T11:07:01.048Z,1004.68
2022-09-16T11:08:01.448Z,1004.72
2022-09-16T11:09:01.032Z,1004.62
2022-09-16T11:10:01.130Z,1004.65
2022-09-16T11:11:01.135Z,1004.58
2022-09-16T11:12:00.842Z,1004.64
2022-09-16T11:13:00.515Z,1004.66
2022-09-16T11:14:00.296Z,1004.66
2022-09-16T11:15:00.009Z,1004.65
2022-09-16T11:15:59.795Z,1004.68
2022-09-16T11:17:01.459Z,1004.61
2022-09-16T11:18:01.026Z,1004.6
2022-09-16T11:19:01.029Z,1004.58
2022-09-16T11:20:03.683Z,1004.61
2022-09-16T11:21:01.086Z,1004.61
2022-09-16T11:22:01.805Z,1004.58
2022-09-16T11:23:02.044Z,1004.62
2022-09-16T11:24:01.714Z,1004.64
2022-09-16T11:25:01.120Z,1004.59
2022-09-16T11:26:01.042Z,1004.59
2022-09-16T11:27:01.553Z,1004.57
2022-09-16T11:28:01.130Z,1004.58
2022-09-16T11:29:01.251Z,1004.55
2022-09-16T11:30:01.138Z,1004.57
2022-09-16T11:31:01.063Z,1004.58
2022-09-16T11:32:01.010Z,1004.58
2022-09-16T11:33:02.942Z,1004.57
2022-09-16T11:34:02.392Z,1004.51
2022-09-16T11:35:01.122Z,1004.46
2022-09-16T11:36:01.463Z,1004.51
2022-09-16T11:37:01.466Z,1004.49
2022-09-16T11:38:01.233Z,1004.53
2022-09-16T11:39:01.552Z,1004.51
2022-09-16T11:40:01.622Z,1004.43
2022-09-16T11:41:01.114Z,1004.49
2022-09-16T11:42:01.121Z,1004.43
2022-09-16T11:43:01.506Z,1004.4
2022-09-16T11:44:01.123Z,1004.46
2022-09-16T11:45:01.180Z,1004.43
2022-09-16T11:46:01.441Z,1004.41
2022-09-16T11:47:01.119Z,1004.38
2022-09-16T11:48:01.059Z,1004.38
2022-09-16T11:49:01.073Z,1004.36
2022-09-16T11:50:01.072Z,1004.34
2022-09-16T11:51:01.446Z,1004.31
2022-09-16T11:52:00.667Z,1004.29
2022-09-16T11:53:04.816Z,1004.24
2022-09-16T11:54:01.908Z,1004.22
2022-09-16T11:55:01.212Z,1004.2
2022-09-16T11:56:01.184Z,1004.25
2022-09-16T11:57:01.031Z,1004.22
2022-09-16T11:58:01.177Z,1004.22
2022-09-16T11:59:01.415Z,1004.25
2022-09-16T12:00:01.384Z,1004.1
2022-09-16T12:01:02.196Z,1004.15
2022-09-16T12:02:01.150Z,1004.15
2022-09-16T12:03:03.552Z,1004.17
2022-09-16T12:04:01.439Z,1004.13
2022-09-16T12:05:01.546Z,1004.17
2022-09-16T12:06:01.082Z,1004.12
2022-09-16T12:07:01.119Z,1004.17
2022-09-16T12:08:04.806Z,1004.15
2022-09-16T12:09:01.404Z,1004.1
2022-09-16T12:10:01.515Z,1004.1